Time;durP1;ratioP1;P1;durP2;ratioP2;P2;SDS_P1;SDS_P2;PMS_P1;PMS_P2;Temp;Humidity;BMP_temperature;BMP_pressure;BME280_temperature;BME280_humidity;BME280_pressure;Samples;Min_cycle;Max_cycle;Signal;HPM_P1;HPM_P2
2024/04/06 00:02:06;;;;;;;2.40;1.02;;;14.40;99.90;;;;;;5085834;28;20028;-85
2024/04/06 00:04:33;;;;;;;4.00;1.55;;;14.40;99.90;;;;;;5088007;28;20009;-85
2024/04/06 00:06:59;;;;;;;4.15;1.50;;;14.30;99.90;;;;;;5085011;28;20024;-87
2024/04/06 00:09:25;;;;;;;4.72;1.42;;;14.30;99.90;;;;;;5088561;28;20054;-86
2024/04/06 00:11:50;;;;;;;5.30;1.33;;;14.20;99.90;;;;;;5087444;28;20029;-85
2024/04/06 00:14:19;;;;;;;4.15;1.60;;;14.20;99.90;;;;;;5084821;28;20012;-85
2024/04/06 00:16:45;;;;;;;3.70;1.42;;;14.20;99.90;;;;;;5085841;28;20028;-85
2024/04/06 00:19:11;;;;;;;2.92;1.20;;;14.20;99.90;;;;;;5081910;28;20044;-85
2024/04/06 00:21:37;;;;;;;4.72;1.73;;;14.20;99.90;;;;;;5083608;28;20031;-85
2024/04/06 00:24:02;;;;;;;4.90;2.17;;;14.10;99.90;;;;;;5081472;28;20017;-85
2024/04/06 00:26:28;;;;;;;4.47;2.00;;;14.10;99.90;;;;;;5083336;28;20040;-87
2024/04/06 00:28:53;;;;;;;4.57;2.13;;;14.10;99.90;;;;;;5082050;28;20027;-87
2024/04/06 00:31:19;;;;;;;6.18;2.22;;;14.00;99.90;;;;;;5083888;28;20032;-87
2024/04/06 00:33:45;;;;;;;4.88;1.65;;;14.00;99.90;;;;;;5083044;28;20075;-88
2024/04/06 00:36:10;;;;;;;6.50;1.92;;;14.00;99.90;;;;;;5081519;28;20012;-87
2024/04/06 00:38:36;;;;;;;6.05;2.28;;;13.90;99.90;;;;;;5083538;28;20163;-88
2024/04/06 00:41:02;;;;;;;5.05;1.73;;;14.00;99.90;;;;;;5081497;28;20036;-87
2024/04/06 00:43:28;;;;;;;4.25;1.73;;;13.90;99.90;;;;;;5084371;28;20032;-87
2024/04/06 00:45:54;;;;;;;4.53;1.67;;;14.00;99.90;;;;;;5081709;28;20012;-87
2024/04/06 00:48:20;;;;;;;8.85;2.67;;;14.00;99.90;;;;;;5084319;28;20076;-86
2024/04/06 00:50:45;;;;;;;3.88;1.35;;;14.00;99.90;;;;;;5084086;28;20017;-86
2024/04/06 00:53:11;;;;;;;4.82;1.83;;;14.00;99.90;;;;;;5081757;28;20028;-87
2024/04/06 00:55:37;;;;;;;3.83;1.80;;;14.00;99.90;;;;;;5084307;28;20032;-86
2024/04/06 00:58:03;;;;;;;4.38;1.42;;;14.00;99.90;;;;;;5075803;28;20028;-87
2024/04/06 01:00:29;;;;;;;3.47;1.48;;;14.00;99.90;;;;;;5084381;28;20047;-86
2024/04/06 01:02:54;;;;;;;3.53;1.52;;;14.00;99.90;;;;;;5082586;28;20047;-84
2024/04/06 01:05:20;;;;;;;8.15;1.60;;;14.00;99.90;;;;;;5083825;28;20055;-84
2024/04/06 01:07:46;;;;;;;4.80;1.40;;;14.00;99.90;;;;;;5081580;28;20084;-84
2024/04/06 01:10:12;;;;;;;2.55;1.10;;;14.00;99.90;;;;;;5081497;28;20013;-85
2024/04/06 01:12:38;;;;;;;3.05;1.08;;;14.10;99.90;;;;;;5082402;28;20092;-86
2024/04/06 01:15:05;;;;;;;4.47;1.00;;;14.10;99.90;;;;;;5081099;28;20020;-85
2024/04/06 01:17:30;;;;;;;4.47;1.25;;;14.10;99.90;;;;;;5084343;28;20024;-86
2024/04/06 01:19:56;;;;;;;5.90;1.33;;;14.20;99.90;;;;;;5085419;28;20017;-86
2024/04/06 01:22:21;;;;;;;5.65;1.23;;;14.20;99.90;;;;;;5085569;28;20051;-86
2024/04/06 01:24:47;;;;;;;4.00;1.08;;;14.30;99.90;;;;;;5082896;28;20100;-86
2024/04/06 01:27:13;;;;;;;5.55;1.33;;;14.30;99.90;;;;;;5081803;28;20024;-88
2024/04/06 01:29:39;;;;;;;2.72;0.85;;;14.30;99.90;;;;;;5084043;28;20032;-87
2024/04/06 01:32:04;;;;;;;4.65;1.23;;;14.40;99.90;;;;;;5080695;28;20035;-86
2024/04/06 01:34:30;;;;;;;4.47;1.13;;;14.40;99.90;;;;;;5083462;28;20052;-87
2024/04/06 01:36:56;;;;;;;3.03;0.93;;;14.50;99.90;;;;;;5082222;28;20024;-87
2024/04/06 01:39:21;;;;;;;3.85;0.80;;;14.50;99.90;;;;;;5083897;28;20016;-87
2024/04/06 01:41:48;;;;;;;3.03;0.95;;;14.50;99.90;;;;;;5082324;28;20025;-86
2024/04/06 01:44:15;;;;;;;2.70;1.15;;;14.50;99.90;;;;;;5076758;28;20096;-87
2024/04/06 01:46:41;;;;;;;5.18;1.13;;;14.60;99.90;;;;;;5083602;28;20080;-88
2024/04/06 01:49:07;;;;;;;3.65;0.88;;;14.60;99.90;;;;;;5081059;28;20016;-88
2024/04/06 01:51:32;;;;;;;3.83;0.90;;;14.60;99.90;;;;;;5083708;28;20080;-86
2024/04/06 01:53:58;;;;;;;2.95;0.82;;;14.70;99.90;;;;;;5082177;28;20036;-86
2024/04/06 01:56:26;;;;;;;3.22;0.73;;;14.70;99.90;;;;;;5083455;28;20035;-87
2024/04/06 01:58:51;;;;;;;3.75;1.08;;;14.70;99.90;;;;;;5082311;28;20024;-87
2024/04/06 02:01:17;;;;;;;4.50;1.00;;;14.70;99.90;;;;;;5083032;28;20545;-86
2024/04/06 02:03:43;;;;;;;2.95;1.00;;;14.70;99.90;;;;;;5083133;28;20202;-86
2024/04/06 02:06:09;;;;;;;3.95;1.20;;;14.70;99.90;;;;;;5082180;28;20059;-87
2024/04/06 02:08:35;;;;;;;3.63;1.30;;;14.80;99.90;;;;;;5083287;28;20024;-86
2024/04/06 02:11:02;;;;;;;3.92;0.85;;;14.80;99.90;;;;;;5080240;28;20012;-87
2024/04/06 02:13:27;;;;;;;7.18;1.33;;;14.70;99.90;;;;;;5081982;28;20092;-87
2024/04/06 02:15:54;;;;;;;3.03;0.82;;;14.70;99.90;;;;;;5081975;28;20032;-87
2024/04/06 02:18:19;;;;;;;2.70;0.90;;;14.80;99.90;;;;;;5081979;28;20024;-88
2024/04/06 02:20:45;;;;;;;4.25;1.13;;;14.70;99.90;;;;;;5084143;28;20029;-88
2024/04/06 02:23:11;;;;;;;2.67;0.95;;;14.70;99.90;;;;;;5084459;28;20099;-88
2024/04/06 02:25:36;;;;;;;3.72;0.90;;;14.70;99.90;;;;;;5086727;28;20070;-87
2024/04/06 02:28:03;;;;;;;4.55;1.20;;;14.70;99.90;;;;;;5084880;28;20029;-87
2024/04/06 02:30:28;;;;;;;3.22;1.05;;;14.70;99.90;;;;;;5086923;28;20047;-86
2024/04/06 02:32:54;;;;;;;4.82;1.02;;;14.70;99.90;;;;;;5084893;28;20518;-87
2024/04/06 02:35:19;;;;;;;5.15;1.20;;;14.70;99.90;;;;;;5086839;28;20017;-86
2024/04/06 02:37:45;;;;;;;4.00;1.38;;;14.70;99.90;;;;;;5086002;28;20021;-87
2024/04/06 02:40:13;;;;;;;2.78;0.77;;;14.70;99.90;;;;;;5085620;28;20122;-86
2024/04/06 02:42:39;;;;;;;2.88;1.05;;;14.70;99.90;;;;;;5085174;28;20021;-87
2024/04/06 02:45:05;;;;;;;3.00;0.80;;;14.70;99.90;;;;;;5083145;28;20020;-87
2024/04/06 02:47:31;;;;;;;5.55;1.23;;;14.60;99.90;;;;;;5085011;28;20024;-84
2024/04/06 02:49:57;;;;;;;5.35;1.17;;;14.60;99.90;;;;;;5084695;28;20074;-86
2024/04/06 02:52:23;;;;;;;5.28;1.20;;;14.70;99.90;;;;;;5086208;28;20492;-85
2024/04/06 02:54:49;;;;;;;4.60;1.08;;;14.60;99.90;;;;;;5085433;28;20460;-86
2024/04/06 02:57:15;;;;;;;3.33;1.13;;;14.60;99.90;;;;;;5085227;28;20031;-85
2024/04/06 02:59:41;;;;;;;2.95;0.77;;;14.60;99.90;;;;;;5084771;28;20035;-85
2024/04/06 03:02:09;;;;;;;4.00;1.15;;;14.60;99.90;;;;;;5083137;28;20028;-86
2024/04/06 03:04:35;;;;;;;5.18;1.05;;;14.60;99.90;;;;;;5084673;28;20028;-86
2024/04/06 03:07:00;;;;;;;3.47;0.90;;;14.60;99.90;;;;;;5082806;28;20017;-86
2024/04/06 03:09:26;;;;;;;4.20;1.02;;;14.60;99.90;;;;;;5084217;28;20019;-84
2024/04/06 03:11:51;;;;;;;2.58;0.93;;;14.60;99.90;;;;;;5085181;28;20088;-85
2024/04/06 03:14:17;;;;;;;3.95;1.00;;;14.60;99.90;;;;;;5085160;28;20377;-86
2024/04/06 03:16:43;;;;;;;3.72;1.08;;;14.50;99.90;;;;;;5085857;28;20036;-86
2024/04/06 03:19:08;;;;;;;2.05;0.70;;;14.50;99.90;;;;;;5084027;28;20028;-86
2024/04/06 03:21:34;;;;;;;2.75;0.93;;;14.40;99.90;;;;;;5084420;28;20020;-85
2024/04/06 03:23:59;;;;;;;4.63;0.93;;;14.40;99.90;;;;;;5082853;28;20040;-86
2024/04/06 03:26:25;;;;;;;3.97;1.05;;;14.40;99.90;;;;;;5084753;28;20052;-85
2024/04/06 03:28:51;;;;;;;2.78;0.93;;;14.40;99.90;;;;;;5084473;28;20032;-85
2024/04/06 03:31:17;;;;;;;3.92;0.80;;;14.30;99.90;;;;;;5085093;28;20020;-86
2024/04/06 03:33:43;;;;;;;3.17;0.75;;;14.30;99.90;;;;;;5084985;28;20036;-85
2024/04/06 03:36:08;;;;;;;3.20;1.10;;;14.30;99.90;;;;;;5082966;28;20024;-86
2024/04/06 03:38:34;;;;;;;3.25;1.23;;;14.30;99.90;;;;;;5084647;28;20456;-86
2024/04/06 03:41:00;;;;;;;3.88;1.33;;;14.20;99.90;;;;;;5082179;28;20028;-85
2024/04/06 03:43:26;;;;;;;4.45;1.17;;;14.20;99.90;;;;;;5085191;28;20035;-86
2024/04/06 03:45:54;;;;;;;4.95;1.85;;;14.20;99.90;;;;;;5083372;28;20012;-84
2024/04/06 03:48:19;;;;;;;3.00;1.00;;;14.20;99.90;;;;;;5084839;28;20017;-86
2024/04/06 03:50:45;;;;;;;4.10;1.48;;;14.20;99.90;;;;;;5083739;28;20056;-86
2024/04/06 03:53:12;;;;;;;3.08;0.98;;;14.10;99.90;;;;;;5083170;28;20033;-83
2024/04/06 03:55:38;;;;;;;3.80;1.20;;;14.10;99.90;;;;;;5085399;28;20112;-84
2024/04/06 03:58:03;;;;;;;5.88;1.52;;;14.10;99.90;;;;;;5085192;28;20024;-85
2024/04/06 04:00:29;;;;;;;3.70;1.10;;;14.10;99.90;;;;;;5087749;28;20075;-86
2024/04/06 04:02:55;;;;;;;2.92;1.02;;;14.10;99.90;;;;;;5085377;28;20043;-85
2024/04/06 04:05:20;;;;;;;4.05;1.20;;;14.10;99.90;;;;;;5085402;28;20016;-84
2024/04/06 04:07:46;;;;;;;3.22;1.17;;;14.10;99.90;;;;;;5081741;28;20108;-84
2024/04/06 04:10:11;;;;;;;8.57;1.25;;;14.00;99.90;;;;;;5082477;28;20074;-85
2024/04/06 04:12:37;;;;;;;4.35;1.48;;;14.00;99.90;;;;;;5082379;28;20032;-86
2024/04/06 04:15:06;;;;;;;2.97;1.25;;;14.00;99.90;;;;;;5081894;28;20055;-86
2024/04/06 04:17:32;;;;;;;3.47;1.65;;;14.00;99.90;;;;;;5082304;28;20082;-86
2024/04/06 04:19:58;;;;;;;3.42;1.20;;;14.00;99.90;;;;;;5080220;28;20028;-86
2024/04/06 04:22:24;;;;;;;5.05;1.33;;;14.00;99.90;;;;;;5082172;28;20480;-85
2024/04/06 04:24:50;;;;;;;4.22;1.25;;;13.90;99.90;;;;;;5081170;28;20019;-85
2024/04/06 04:27:15;;;;;;;4.47;1.27;;;13.90;99.90;;;;;;5082314;28;20068;-85
2024/04/06 04:29:41;;;;;;;5.15;1.35;;;13.90;99.90;;;;;;5068136;28;20057;-86
2024/04/06 04:32:07;;;;;;;4.22;1.17;;;13.90;99.90;;;;;;5070186;28;20048;-86
2024/04/06 04:34:32;;;;;;;5.15;1.52;;;13.90;99.90;;;;;;5083439;28;20055;-85
2024/04/06 04:36:58;;;;;;;4.50;1.30;;;13.90;99.90;;;;;;5081085;28;20048;-86
2024/04/06 04:39:24;;;;;;;3.00;1.08;;;13.80;99.90;;;;;;5083057;28;20021;-87
2024/04/06 04:41:53;;;;;;;3.72;1.13;;;13.80;99.90;;;;;;5082076;28;20025;-86
2024/04/06 04:44:19;;;;;;;4.35;1.20;;;13.80;99.90;;;;;;5082265;28;20369;-85
2024/04/06 04:46:44;;;;;;;3.95;1.50;;;13.70;99.90;;;;;;5081965;28;20024;-85
2024/04/06 04:49:10;;;;;;;3.55;1.17;;;13.70;99.90;;;;;;5080880;28;20020;-85
2024/04/06 04:51:36;;;;;;;4.70;1.88;;;13.70;99.90;;;;;;5083207;28;20103;-84
2024/04/06 04:54:02;;;;;;;5.03;1.45;;;13.70;99.90;;;;;;5079662;28;20119;-85
2024/04/06 04:56:27;;;;;;;3.22;1.48;;;13.60;99.90;;;;;;5081845;28;20032;-86
2024/04/06 04:58:53;;;;;;;3.72;1.20;;;13.60;99.90;;;;;;5072297;28;20567;-85
2024/04/06 05:01:18;;;;;;;3.75;1.60;;;13.60;99.90;;;;;;5082498;28;20048;-85
2024/04/06 05:03:44;;;;;;;4.38;1.50;;;13.50;99.90;;;;;;5082483;28;20024;-84
2024/04/06 05:06:10;;;;;;;2.65;1.33;;;13.50;99.90;;;;;;5080767;28;20331;-85
2024/04/06 05:08:36;;;;;;;4.25;1.33;;;13.50;99.90;;;;;;5082899;28;20390;-85
2024/04/06 05:11:02;;;;;;;5.40;1.60;;;13.60;99.90;;;;;;5080573;28;20051;-83
2024/04/06 05:13:28;;;;;;;5.43;1.50;;;13.60;99.90;;;;;;5081149;28;20064;-86
2024/04/06 05:15:54;;;;;;;6.53;1.90;;;13.60;99.90;;;;;;5081005;28;20052;-84
2024/04/06 05:18:23;;;;;;;5.15;1.63;;;13.60;99.90;;;;;;5081019;28;20115;-85
2024/04/06 05:20:56;;;;;;;7.63;1.83;;;13.60;99.90;;;;;;5082431;28;20029;-85
2024/04/06 05:23:22;;;;;;;8.18;2.97;;;13.60;99.90;;;;;;5080730;28;20028;-85
2024/04/06 05:25:50;;;;;;;6.78;1.75;;;13.60;99.90;;;;;;5082498;28;20053;-84
2024/04/06 05:28:20;;;;;;;3.97;1.75;;;13.60;99.90;;;;;;5080706;28;20039;-85
2024/04/06 05:30:47;;;;;;;4.45;1.83;;;13.60;99.90;;;;;;5081533;28;20123;-85
2024/04/06 05:33:14;;;;;;;4.15;1.20;;;13.70;99.90;;;;;;5080243;28;20060;-86
2024/04/06 05:35:44;;;;;;;4.60;1.70;;;13.70;99.90;;;;;;5080841;28;20021;-84
2024/04/06 05:38:10;;;;;;;6.78;1.40;;;13.70;99.90;;;;;;5084020;28;20036;-86
2024/04/06 05:40:40;;;;;;;3.75;1.30;;;13.70;99.90;;;;;;5087779;28;20062;-83
2024/04/06 05:43:09;;;;;;;4.82;1.90;;;13.70;99.90;;;;;;5085692;28;20589;-84
2024/04/06 05:45:37;;;;;;;5.05;1.45;;;13.70;99.90;;;;;;5081255;28;20054;-84
2024/04/06 05:48:03;;;;;;;4.50;1.50;;;13.70;99.90;;;;;;5083258;28;20020;-85
2024/04/06 05:50:33;;;;;;;3.70;1.30;;;13.70;99.90;;;;;;5081804;28;20039;-85
2024/04/06 05:52:59;;;;;;;4.85;1.52;;;13.70;99.90;;;;;;5082572;28;20032;-84
2024/04/06 05:55:25;;;;;;;5.43;1.63;;;13.70;99.90;;;;;;5085072;28;20028;-85
2024/04/06 05:57:51;;;;;;;4.80;1.60;;;13.70;99.90;;;;;;5080039;28;20075;-85
2024/04/06 06:00:17;;;;;;;4.18;1.60;;;13.70;99.90;;;;;;5085077;28;20021;-85
2024/04/06 06:02:43;;;;;;;5.32;1.88;;;13.70;99.90;;;;;;5083170;28;20043;-85
2024/04/06 06:05:08;;;;;;;4.78;1.67;;;13.80;99.90;;;;;;5086597;28;20019;-84
2024/04/06 06:07:34;;;;;;;3.33;1.17;;;13.80;99.90;;;;;;5085307;28;20029;-83
2024/04/06 06:10:00;;;;;;;5.07;1.30;;;13.80;99.90;;;;;;5085401;28;20066;-84
2024/04/06 06:12:26;;;;;;;4.25;1.55;;;13.80;99.90;;;;;;5086949;28;20080;-84
2024/04/06 06:14:52;;;;;;;3.42;1.58;;;13.80;99.90;;;;;;5084341;28;20020;-84
2024/04/06 06:17:19;;;;;;;6.13;1.40;;;13.90;99.90;;;;;;5081480;28;20084;-84
2024/04/06 06:19:45;;;;;;;4.65;1.35;;;13.90;99.90;;;;;;5082666;28;20082;-84
2024/04/06 06:22:10;;;;;;;6.93;1.17;;;13.90;99.90;;;;;;5085841;28;20033;-84
2024/04/06 06:24:37;;;;;;;5.38;1.75;;;14.00;99.90;;;;;;5084147;28;20056;-81
2024/04/06 06:27:02;;;;;;;7.10;1.65;;;14.00;99.90;;;;;;5085507;28;20044;-83
2024/04/06 06:29:28;;;;;;;2.85;1.30;;;14.00;99.90;;;;;;5085488;28;20031;-82
2024/04/06 06:31:54;;;;;;;3.03;1.00;;;14.00;99.90;;;;;;5084276;28;20047;-85
2024/04/06 06:34:20;;;;;;;5.55;1.30;;;14.00;99.90;;;;;;5086052;28;20529;-86
2024/04/06 06:36:49;;;;;;;3.78;1.00;;;14.10;99.90;;;;;;5082611;28;20027;-85
2024/04/06 06:39:15;;;;;;;2.70;1.17;;;14.10;99.90;;;;;;5085427;28;20021;-86
2024/04/06 06:41:40;;;;;;;4.80;1.15;;;14.10;99.90;;;;;;5083592;28;20029;-85
2024/04/06 06:44:06;;;;;;;4.75;1.13;;;14.20;99.90;;;;;;5083241;28;20027;-85
2024/04/06 06:46:32;;;;;;;3.17;1.13;;;14.30;99.90;;;;;;5085138;28;20025;-85
2024/04/06 06:48:57;;;;;;;2.40;0.90;;;14.30;99.90;;;;;;5082532;28;20472;-85
2024/04/06 06:51:23;;;;;;;2.97;0.93;;;14.30;99.90;;;;;;5085040;28;20028;-84
2024/04/06 06:53:48;;;;;;;4.22;1.05;;;14.40;99.90;;;;;;5082168;28;20043;-84
2024/04/06 06:56:14;;;;;;;3.17;0.88;;;14.40;99.90;;;;;;5084299;28;20020;-82
2024/04/06 06:58:40;;;;;;;2.40;1.00;;;14.40;99.90;;;;;;5081919;28;20024;-87
2024/04/06 07:01:05;;;;;;;3.05;0.88;;;14.40;99.90;;;;;;5084526;28;20036;-88
2024/04/06 07:03:31;;;;;;;2.42;0.93;;;14.50;99.90;;;;;;5085690;28;20021;-88
2024/04/06 07:05:56;;;;;;;4.72;1.10;;;14.50;99.90;;;;;;5083306;28;20507;-90
2024/04/06 07:08:22;;;;;;;3.90;0.90;;;14.50;99.90;;;;;;5086108;28;20044;-90
2024/04/06 07:10:48;;;;;;;3.03;0.70;;;14.50;99.90;;;;;;5081785;28;20383;-88
2024/04/06 07:13:13;;;;;;;2.42;0.73;;;14.60;99.90;;;;;;5084196;28;20040;-88
2024/04/06 07:15:39;;;;;;;4.28;0.93;;;14.60;99.90;;;;;;5083971;28;20155;-87
2024/04/06 07:18:05;;;;;;;2.45;1.13;;;14.70;99.90;;;;;;5085483;28;20080;-88
2024/04/06 07:20:30;;;;;;;5.00;1.00;;;14.70;99.90;;;;;;5083989;28;20024;-87
2024/04/06 07:22:56;;;;;;;2.67;0.70;;;14.80;99.90;;;;;;5084128;28;20029;-88
2024/04/06 07:25:22;;;;;;;3.15;1.05;;;14.90;99.90;;;;;;5083827;28;20096;-87
2024/04/06 07:27:47;;;;;;;4.20;1.20;;;14.90;99.90;;;;;;5083064;28;20507;-87
2024/04/06 07:30:13;;;;;;;1.77;0.73;;;15.00;99.90;;;;;;5084945;28;20020;-88
2024/04/06 07:32:39;;;;;;;4.40;0.80;;;15.00;99.90;;;;;;5082709;28;20043;-88
2024/04/06 07:35:09;;;;;;;4.60;0.63;;;15.10;99.90;;;;;;5080749;28;20458;-89
2024/04/06 07:37:35;;;;;;;3.78;0.90;;;15.20;99.90;;;;;;5074759;28;20031;-88
2024/04/06 07:40:04;;;;;;;2.70;0.80;;;15.20;99.90;;;;;;5084220;28;20036;-88
2024/04/06 07:42:31;;;;;;;4.82;1.08;;;15.30;99.90;;;;;;5084192;28;20452;-89
2024/04/06 07:44:56;;;;;;;4.85;0.95;;;15.40;99.90;;;;;;5082405;28;20021;-88
2024/04/06 07:47:25;;;;;;;2.28;0.68;;;15.40;99.90;;;;;;5087033;28;20834;-88
2024/04/06 07:49:51;;;;;;;3.25;0.90;;;15.50;99.90;;;;;;5084015;28;20024;-88
2024/04/06 07:52:17;;;;;;;3.80;1.08;;;15.60;99.90;;;;;;5087787;28;20032;-89
2024/04/06 07:54:42;;;;;;;2.45;0.75;;;15.70;99.90;;;;;;5087384;28;20027;-88
2024/04/06 07:57:08;;;;;;;1.40;0.60;;;15.70;99.90;;;;;;5093265;28;20029;-88
2024/04/06 07:59:34;;;;;;;3.58;0.95;;;15.80;99.90;;;;;;5092025;28;20142;-87
2024/04/06 08:01:59;;;;;;;3.50;0.80;;;15.80;99.90;;;;;;5081274;28;20508;-88
2024/04/06 08:04:27;;;;;;;2.00;0.63;;;15.90;99.90;;;;;;5084270;28;20028;-88
2024/04/06 08:06:52;;;;;;;2.17;0.85;;;16.00;99.90;;;;;;5082208;28;20020;-88
2024/04/06 08:09:18;;;;;;;2.60;0.80;;;16.00;99.90;;;;;;5082202;28;20074;-88
2024/04/06 08:11:44;;;;;;;2.33;0.90;;;16.10;99.90;;;;;;5081262;28;20060;-88
2024/04/06 08:14:09;;;;;;;5.80;0.95;;;16.20;99.90;;;;;;5082543;28;20067;-88
2024/04/06 08:16:40;;;;;;;3.13;0.75;;;16.20;99.90;;;;;;5082240;28;20480;-88
2024/04/06 08:19:05;;;;;;;3.05;0.85;;;16.30;99.90;;;;;;5081506;28;20471;-88
2024/04/06 08:21:31;;;;;;;1.55;0.68;;;16.30;99.90;;;;;;5083778;28;20024;-88
2024/04/06 08:23:57;;;;;;;2.97;0.70;;;16.40;99.90;;;;;;5081344;28;20024;-88
2024/04/06 08:26:22;;;;;;;2.35;1.02;;;16.50;99.90;;;;;;5083789;28;20438;-88
2024/04/06 08:28:49;;;;;;;2.08;0.80;;;16.60;99.90;;;;;;5080849;28;20349;-88
2024/04/06 08:31:14;;;;;;;2.60;0.82;;;16.70;99.90;;;;;;5083329;28;20425;-88
2024/04/06 08:33:40;;;;;;;5.35;0.98;;;16.70;99.90;;;;;;5081562;28;20034;-88
2024/04/06 08:36:06;;;;;;;3.63;0.63;;;16.80;99.90;;;;;;5081695;28;20020;-88
2024/04/06 08:38:31;;;;;;;5.28;0.80;;;16.90;99.90;;;;;;5083505;28;20029;-89
2024/04/06 08:41:01;;;;;;;1.73;0.60;;;17.00;99.90;;;;;;5081520;28;20020;-88
2024/04/06 08:43:33;;;;;;;2.47;0.90;;;17.00;99.90;;;;;;5082085;28;20036;-89
2024/04/06 08:45:59;;;;;;;1.77;0.70;;;17.10;99.90;;;;;;5081751;28;20017;-90
2024/04/06 08:48:28;;;;;;;2.67;0.80;;;17.20;99.90;;;;;;5082717;28;20063;-87
2024/04/06 08:50:54;;;;;;;2.97;0.75;;;17.20;99.90;;;;;;5081959;28;20021;-89
2024/04/06 08:53:19;;;;;;;4.53;0.90;;;17.30;99.90;;;;;;5081211;28;20035;-88
2024/04/06 08:55:45;;;;;;;3.00;0.80;;;17.40;99.90;;;;;;5082377;28;20082;-88
2024/04/06 08:58:11;;;;;;;6.70;0.98;;;17.40;99.90;;;;;;5079919;28;20101;-88
2024/04/06 09:00:39;;;;;;;2.95;0.98;;;17.50;99.90;;;;;;5083551;28;20420;-88
2024/04/06 09:03:05;;;;;;;3.28;0.70;;;17.60;99.90;;;;;;5079965;28;20024;-88
2024/04/06 09:05:30;;;;;;;1.70;0.68;;;17.70;99.90;;;;;;5083269;28;20091;-88
2024/04/06 09:07:56;;;;;;;2.22;0.68;;;17.70;99.90;;;;;;5081563;28;20074;-88
2024/04/06 09:10:25;;;;;;;2.22;0.70;;;17.80;99.90;;;;;;5081833;28;20021;-88
2024/04/06 09:12:51;;;;;;;2.80;0.80;;;17.90;99.90;;;;;;5084925;28;20036;-87
2024/04/06 09:15:17;;;;;;;2.63;0.70;;;18.00;99.90;;;;;;5080247;28;20111;-89
2024/04/06 09:17:43;;;;;;;3.17;0.80;;;18.10;99.80;;;;;;5082038;28;20017;-88
2024/04/06 09:20:09;;;;;;;2.78;0.70;;;18.10;99.60;;;;;;5081830;28;20032;-88
2024/04/06 09:22:35;;;;;;;2.80;0.63;;;18.20;99.40;;;;;;5083580;28;20032;-89
2024/04/06 09:25:07;;;;;;;1.83;0.80;;;18.30;99.20;;;;;;5083493;28;20031;-89
2024/04/06 09:27:33;;;;;;;2.05;0.88;;;18.40;98.80;;;;;;5080757;28;20490;-87
2024/04/06 09:29:59;;;;;;;2.35;0.90;;;18.60;98.60;;;;;;5085236;28;20017;-87
2024/04/06 09:32:29;;;;;;;3.13;0.70;;;18.70;98.10;;;;;;5083176;28;20078;-88
2024/04/06 09:34:55;;;;;;;2.55;0.82;;;18.80;97.70;;;;;;5086945;28;20024;-88
2024/04/06 09:37:36;;;;;;;2.72;0.70;;;19.00;97.30;;;;;;5083859;28;20456;-88
2024/04/06 09:40:05;;;;;;;3.63;0.93;;;19.10;96.80;;;;;;5084725;28;20487;-89
2024/04/06 09:42:31;;;;;;;3.33;0.88;;;19.20;96.50;;;;;;5086914;28;20432;-88
2024/04/06 09:44:57;;;;;;;2.40;0.70;;;19.30;96.00;;;;;;5083241;28;20036;-88
2024/04/06 09:47:23;;;;;;;5.18;0.80;;;19.50;95.60;;;;;;5086717;28;20033;-88
2024/04/06 09:49:50;;;;;;;2.85;0.82;;;19.60;95.50;;;;;;5083082;28;20048;-87
2024/04/06 09:52:20;;;;;;;1.95;0.75;;;19.70;94.80;;;;;;5086358;28;20076;-87
2024/04/06 09:54:47;;;;;;;2.13;0.50;;;19.80;94.60;;;;;;5085808;28;20021;-87
2024/04/06 09:57:14;;;;;;;6.07;0.70;;;19.90;94.20;;;;;;5085286;28;20035;-88
2024/04/06 09:59:40;;;;;;;3.25;0.70;;;20.00;93.80;;;;;;5082440;28;20084;-89
2024/04/06 10:02:08;;;;;;;2.33;0.70;;;20.10;93.50;;;;;;5086271;28;20025;-87
2024/04/06 10:04:36;;;;;;;1.90;0.57;;;20.20;93.10;;;;;;5088608;28;20047;-87
2024/04/06 10:07:05;;;;;;;1.88;0.50;;;20.30;92.70;;;;;;5083944;28;20032;-86
2024/04/06 10:09:32;;;;;;;1.95;0.55;;;20.40;92.20;;;;;;5084898;28;20013;-87
2024/04/06 10:11:59;;;;;;;3.08;0.57;;;20.50;91.90;;;;;;5085393;28;20080;-86
2024/04/06 10:14:26;;;;;;;2.83;0.57;;;20.50;91.50;;;;;;5083377;28;20024;-87
2024/04/06 10:17:04;;;;;;;2.30;0.70;;;20.60;91.10;;;;;;5084639;28;20048;-87
2024/04/06 10:19:30;;;;;;;1.30;0.50;;;20.70;90.80;;;;;;5082517;28;20044;-87
2024/04/06 10:22:03;;;;;;;3.58;0.77;;;20.80;90.50;;;;;;5086026;28;20065;-87
2024/04/06 10:24:29;;;;;;;2.75;0.80;;;20.90;90.10;;;;;;5082812;28;20024;-88
2024/04/06 10:26:56;;;;;;;2.50;0.60;;;21.00;89.80;;;;;;5085429;28;20167;-88
2024/04/06 10:29:23;;;;;;;3.25;0.77;;;21.00;88.90;;;;;;5084045;28;20081;-87
2024/04/06 10:31:48;;;;;;;3.17;0.80;;;21.10;88.90;;;;;;5084210;28;20032;-87
2024/04/06 10:34:14;;;;;;;2.47;0.60;;;21.20;87.80;;;;;;5084399;28;20025;-88
2024/04/06 10:36:40;;;;;;;2.63;0.73;;;21.30;87.10;;;;;;5083482;28;20028;-87
2024/04/06 10:39:08;;;;;;;2.95;0.60;;;21.50;87.20;;;;;;5080941;28;20017;-89
2024/04/06 10:41:36;;;;;;;2.03;0.70;;;21.60;85.50;;;;;;5070593;28;20029;-89
2024/04/06 10:44:02;;;;;;;3.50;0.75;;;21.80;84.60;;;;;;5065151;28;20053;-89
2024/04/06 10:46:28;;;;;;;3.60;0.70;;;21.80;84.00;;;;;;5065462;28;20029;-89
2024/04/06 10:48:54;;;;;;;1.77;0.55;;;21.90;83.30;;;;;;5063402;28;20044;-89
2024/04/06 10:51:21;;;;;;;2.58;0.50;;;22.00;82.70;;;;;;5067633;28;20021;-89
2024/04/06 10:53:47;;;;;;;2.90;0.52;;;22.00;82.00;;;;;;5063514;28;20036;-89
2024/04/06 10:56:13;;;;;;;3.47;0.63;;;22.10;81.40;;;;;;5065800;28;20032;-89
2024/04/06 10:58:39;;;;;;;4.72;0.60;;;22.20;80.80;;;;;;5063509;28;20032;-89
2024/04/06 11:01:23;;;;;;;3.88;0.60;;;22.30;80.40;;;;;;5064227;28;20025;-89
2024/04/06 11:03:50;;;;;;;1.80;0.50;;;22.50;79.30;;;;;;5066721;28;20449;-88
2024/04/06 11:06:15;;;;;;;2.05;0.60;;;22.50;79.00;;;;;;5063448;28;20029;-89
2024/04/06 11:08:41;;;;;;;1.88;0.47;;;22.60;78.30;;;;;;5065461;28;20102;-89
2024/04/06 11:11:11;;;;;;;3.15;1.08;;;22.80;77.50;;;;;;5061922;28;20029;-90
2024/04/06 11:13:41;;;;;;;3.80;0.60;;;22.90;76.60;;;;;;5063993;28;20105;-89
2024/04/06 11:16:09;;;;;;;2.65;0.47;;;23.00;75.30;;;;;;5063923;28;20060;-89
2024/04/06 11:18:42;;;;;;;1.55;0.50;;;23.10;74.40;;;;;;5064407;28;20031;-89
2024/04/06 11:21:11;;;;;;;2.77;0.57;;;23.30;73.40;;;;;;5066021;28;20033;-88
2024/04/06 11:23:37;;;;;;;1.77;0.50;;;23.40;72.80;;;;;;5061892;28;20053;-90
2024/04/06 11:26:03;;;;;;;2.25;0.60;;;23.60;72.00;;;;;;5066558;28;20108;-88
2024/04/06 11:28:29;;;;;;;2.10;0.60;;;23.70;71.30;;;;;;5064169;28;20068;-90
2024/04/06 11:30:54;;;;;;;2.38;0.82;;;23.80;71.00;;;;;;5067351;28;20017;-89
2024/04/06 11:33:21;;;;;;;3.88;0.70;;;23.90;70.60;;;;;;5066018;28;20033;-88
2024/04/06 11:35:46;;;;;;;2.10;0.50;;;24.00;70.10;;;;;;5066801;28;20033;-89
2024/04/06 11:38:12;;;;;;;3.53;0.63;;;24.10;69.80;;;;;;5067646;28;20032;-89
2024/04/06 11:40:37;;;;;;;2.05;0.70;;;24.20;69.40;;;;;;5065149;28;20087;-89
2024/04/06 11:43:03;;;;;;;2.08;0.60;;;24.40;69.10;;;;;;5066988;28;20017;-89
2024/04/06 11:45:29;;;;;;;1.58;0.43;;;24.50;68.60;;;;;;5066420;28;20393;-89
2024/04/06 11:47:55;;;;;;;2.72;0.50;;;24.60;68.10;;;;;;5069149;28;20379;-90
2024/04/06 11:50:21;;;;;;;1.55;0.40;;;24.80;67.70;;;;;;5067463;28;20085;-89
2024/04/06 11:52:46;;;;;;;1.00;0.40;;;24.90;67.10;;;;;;5069419;28;20042;-90
2024/04/06 11:55:12;;;;;;;1.85;0.50;;;25.00;66.20;;;;;;5077348;28;20447;-89
2024/04/06 11:57:37;;;;;;;3.10;0.50;;;25.20;65.80;;;;;;5082454;28;20528;-89
2024/04/06 12:00:06;;;;;;;6.95;0.60;;;25.30;65.00;;;;;;5084978;28;20165;-89
2024/04/06 12:02:31;;;;;;;1.70;0.43;;;25.40;64.40;;;;;;5082540;28;20040;-89
2024/04/06 12:04:57;;;;;;;5.20;0.60;;;25.50;64.10;;;;;;5083183;28;20017;-90
2024/04/06 12:07:22;;;;;;;2.33;0.40;;;25.70;63.60;;;;;;5081416;28;20020;-89
2024/04/06 12:09:48;;;;;;;2.70;0.50;;;25.80;63.10;;;;;;5091004;28;20036;-89
2024/04/06 12:12:14;;;;;;;1.23;0.40;;;26.00;63.10;;;;;;5090088;28;20115;-88
2024/04/06 12:14:39;;;;;;;3.85;0.65;;;26.10;62.50;;;;;;5086847;28;20028;-89
2024/04/06 12:17:19;;;;;;;2.92;0.50;;;26.30;61.80;;;;;;5084717;28;20024;-89
2024/04/06 12:19:45;;;;;;;2.17;0.40;;;26.50;61.60;;;;;;5082285;28;20024;-89
2024/04/06 12:22:11;;;;;;;0.85;0.40;;;26.70;60.50;;;;;;5083842;28;20024;-89
2024/04/06 12:24:37;;;;;;;2.08;0.50;;;26.90;59.80;;;;;;5082260;28;20043;-90
2024/04/06 12:27:03;;;;;;;1.45;0.38;;;27.20;58.90;;;;;;5083254;28;20033;-90
2024/04/06 12:29:29;;;;;;;1.85;0.43;;;27.50;57.50;;;;;;5082550;28;20024;-89
2024/04/06 12:31:56;;;;;;;1.90;0.40;;;27.60;55.90;;;;;;5080552;28;20338;-91
2024/04/06 12:34:21;;;;;;;2.55;0.40;;;27.70;54.70;;;;;;5084046;28;20140;-89
2024/04/06 12:36:47;;;;;;;2.67;0.40;;;27.70;53.60;;;;;;5081712;28;20028;-89
2024/04/06 12:39:13;;;;;;;1.02;0.50;;;27.70;53.00;;;;;;5082569;28;20067;-89
2024/04/06 12:41:38;;;;;;;2.00;0.40;;;27.50;52.70;;;;;;5080620;28;20032;-89
2024/04/06 12:44:04;;;;;;;1.70;0.40;;;27.40;51.90;;;;;;5082318;28;20387;-89